Aérodrome :
LOGIN :

S'inscrire | Disclaimer

   EN    FR    IT 

 










Légende :    VFR   VFR Marginal   IFR   IFR Intensif   IFR Très Intensif
Visi : 
Plafond : 
>= 8 km
>= 3000ft
5 à 8 km
1000 à 3000 ft
1500m à 5 km
500 à 1000 ft
800 à 1500m
200 à 500 ft
< 800m
< 200 ft
Symboles :   Orages  Brouillard  Fortes neiges  Fortes précipitations  Vent > 20 kt
SIGMETs :   Divers  Orages  Givrage  Turbulence  Onde Orograph.  Cendres Volcan.






- Altitude de l'aérodrome : 814 ft
- Code IATA : TLM


DAON - Zenata - Tlemcen

DERNIER METAR :
  • 141330Z 28010KT 9999 SCT026 SCT233 18/11 Q1008

METARs EXPIRÉS :
  • 141230Z 25010KT 9999 FEW026 SCT233 20/08 Q1009
  • 141200Z 25010KT 9999 FEW026 SCT233 20/09 Q1010
  • 141130Z 22020KT CAVOK 20/08 Q1010
  • 141100Z 22020KT CAVOK 19/09 Q1011

TAF TAF DAON
Valide du 14 à 12h jusqu'au 15 à 12h UTC


141100Z 1412/1512 24020KT CAVOK
PROB40
TEMPO 1415/1424 5000 TSRA SCT023 FEW026CB BKN030
PROB30
TEMPO 1506/1512 6000 -TSRA FEW023CB SCT026TCU



MET'MAP, la Météo Aéronautique d'un coup d'oeil ! - Copyright ORBIFLY Décembre 2007 - Disclaimer

ORBIFLY MET'MAP TEAM :

Programmation & Développement : Alexandra Zaïnal
Conception & Développement : Baudouin d'Aumeries
Co-Programmation & Développement : Marc-Olivier Méhu
Soutien technique & logistique : Manuel Goepfert

Contact : metmap@orbifly.com




SOURCES & CREDITS :

   NOAA